sensor_id;sensor_type;location;lat;lon;timestamp;P1;durP1;ratioP1;P2;durP2;ratioP2
75272;SDS011;63869;52.344;16.928;2022-11-10T00:00:17;36.97;;;17.58;;
75272;SDS011;63869;52.344;16.928;2022-11-10T00:02:43;45.88;;;19.00;;
75272;SDS011;63869;52.344;16.928;2022-11-10T00:05:08;41.55;;;19.30;;
75272;SDS011;63869;52.344;16.928;2022-11-10T00:07:34;34.72;;;17.52;;
75272;SDS011;63869;52.344;16.928;2022-11-10T00:10:00;31.80;;;15.85;;
75272;SDS011;63869;52.344;16.928;2022-11-10T00:12:25;38.63;;;17.27;;
75272;SDS011;63869;52.344;16.928;2022-11-10T00:14:50;36.42;;;16.20;;
75272;SDS011;63869;52.344;16.928;2022-11-10T00:17:35;38.15;;;18.02;;
75272;SDS011;63869;52.344;16.928;2022-11-10T00:20:00;36.65;;;17.58;;
75272;SDS011;63869;52.344;16.928;2022-11-10T00:22:26;37.60;;;17.20;;
75272;SDS011;63869;52.344;16.928;2022-11-10T00:24:51;36.05;;;16.10;;
75272;SDS011;63869;52.344;16.928;2022-11-10T00:27:17;39.05;;;17.77;;
75272;SDS011;63869;52.344;16.928;2022-11-10T00:29:42;36.67;;;17.13;;
75272;SDS011;63869;52.344;16.928;2022-11-10T00:32:08;36.78;;;16.65;;
75272;SDS011;63869;52.344;16.928;2022-11-10T00:34:34;48.60;;;19.92;;
75272;SDS011;63869;52.344;16.928;2022-11-10T00:36:59;40.95;;;18.38;;
75272;SDS011;63869;52.344;16.928;2022-11-10T00:39:24;39.50;;;19.20;;
75272;SDS011;63869;52.344;16.928;2022-11-10T00:41:50;37.03;;;18.05;;
75272;SDS011;63869;52.344;16.928;2022-11-10T00:44:15;35.35;;;16.85;;
75272;SDS011;63869;52.344;16.928;2022-11-10T00:46:40;37.15;;;16.70;;
75272;SDS011;63869;52.344;16.928;2022-11-10T00:49:06;36.25;;;16.73;;
75272;SDS011;63869;52.344;16.928;2022-11-10T00:51:31;34.10;;;16.30;;
75272;SDS011;63869;52.344;16.928;2022-11-10T00:53:56;36.78;;;16.48;;
75272;SDS011;63869;52.344;16.928;2022-11-10T00:56:22;35.05;;;17.77;;
75272;SDS011;63869;52.344;16.928;2022-11-10T00:58:48;35.08;;;16.77;;
75272;SDS011;63869;52.344;16.928;2022-11-10T01:01:14;34.38;;;16.58;;
75272;SDS011;63869;52.344;16.928;2022-11-10T01:03:40;34.60;;;16.02;;
75272;SDS011;63869;52.344;16.928;2022-11-10T01:06:15;32.20;;;15.57;;
75272;SDS011;63869;52.344;16.928;2022-11-10T01:08:41;34.97;;;15.93;;
75272;SDS011;63869;52.344;16.928;2022-11-10T01:11:09;32.28;;;15.02;;
75272;SDS011;63869;52.344;16.928;2022-11-10T01:13:37;37.15;;;16.38;;
75272;SDS011;63869;52.344;16.928;2022-11-10T01:16:07;29.38;;;14.40;;
75272;SDS011;63869;52.344;16.928;2022-11-10T01:18:35;32.05;;;15.30;;
75272;SDS011;63869;52.344;16.928;2022-11-10T01:21:01;33.63;;;15.48;;
75272;SDS011;63869;52.344;16.928;2022-11-10T01:23:27;31.00;;;15.32;;
75272;SDS011;63869;52.344;16.928;2022-11-10T01:26:00;29.23;;;15.88;;
75272;SDS011;63869;52.344;16.928;2022-11-10T01:28:27;30.83;;;15.77;;
75272;SDS011;63869;52.344;16.928;2022-11-10T01:30:56;32.30;;;15.57;;
75272;SDS011;63869;52.344;16.928;2022-11-10T01:33:25;28.50;;;15.20;;
75272;SDS011;63869;52.344;16.928;2022-11-10T01:35:50;32.75;;;14.95;;
75272;SDS011;63869;52.344;16.928;2022-11-10T01:38:15;30.52;;;14.30;;
75272;SDS011;63869;52.344;16.928;2022-11-10T01:40:41;32.85;;;15.25;;
75272;SDS011;63869;52.344;16.928;2022-11-10T01:43:08;33.00;;;15.15;;
75272;SDS011;63869;52.344;16.928;2022-11-10T01:48:40;30.48;;;14.43;;
75272;SDS011;63869;52.344;16.928;2022-11-10T01:51:17;28.75;;;13.38;;
75272;SDS011;63869;52.344;16.928;2022-11-10T01:53:48;31.63;;;13.48;;
75272;SDS011;63869;52.344;16.928;2022-11-10T01:56:16;30.30;;;14.15;;
75272;SDS011;63869;52.344;16.928;2022-11-10T01:58:48;29.95;;;13.98;;
75272;SDS011;63869;52.344;16.928;2022-11-10T02:01:17;28.58;;;14.18;;
75272;SDS011;63869;52.344;16.928;2022-11-10T02:03:47;28.48;;;13.68;;
75272;SDS011;63869;52.344;16.928;2022-11-10T02:06:16;29.40;;;14.02;;
75272;SDS011;63869;52.344;16.928;2022-11-10T02:08:43;29.00;;;13.68;;
75272;SDS011;63869;52.344;16.928;2022-11-10T02:11:10;28.50;;;14.25;;
75272;SDS011;63869;52.344;16.928;2022-11-10T02:13:36;30.40;;;13.73;;
75272;SDS011;63869;52.344;16.928;2022-11-10T02:16:01;31.02;;;14.43;;
75272;SDS011;63869;52.344;16.928;2022-11-10T02:18:26;29.65;;;13.88;;
75272;SDS011;63869;52.344;16.928;2022-11-10T02:20:52;34.10;;;14.05;;
75272;SDS011;63869;52.344;16.928;2022-11-10T02:25:55;29.70;;;13.65;;
75272;SDS011;63869;52.344;16.928;2022-11-10T02:28:22;30.20;;;13.05;;
75272;SDS011;63869;52.344;16.928;2022-11-10T02:30:48;31.33;;;13.68;;
75272;SDS011;63869;52.344;16.928;2022-11-10T02:33:13;28.48;;;12.55;;
75272;SDS011;63869;52.344;16.928;2022-11-10T02:35:41;29.73;;;14.15;;
75272;SDS011;63869;52.344;16.928;2022-11-10T02:38:10;28.33;;;13.48;;
75272;SDS011;63869;52.344;16.928;2022-11-10T02:40:36;34.92;;;15.10;;
75272;SDS011;63869;52.344;16.928;2022-11-10T02:43:02;29.95;;;13.55;;
75272;SDS011;63869;52.344;16.928;2022-11-10T02:45:29;28.40;;;14.18;;
75272;SDS011;63869;52.344;16.928;2022-11-10T02:47:54;33.42;;;14.43;;
75272;SDS011;63869;52.344;16.928;2022-11-10T02:50:19;33.30;;;13.98;;
75272;SDS011;63869;52.344;16.928;2022-11-10T02:52:45;32.70;;;13.27;;
75272;SDS011;63869;52.344;16.928;2022-11-10T02:55:10;30.85;;;13.85;;
75272;SDS011;63869;52.344;16.928;2022-11-10T02:57:36;28.55;;;13.63;;
75272;SDS011;63869;52.344;16.928;2022-11-10T03:00:02;28.67;;;14.05;;
75272;SDS011;63869;52.344;16.928;2022-11-10T03:02:28;31.63;;;14.95;;
75272;SDS011;63869;52.344;16.928;2022-11-10T03:04:54;27.88;;;13.20;;
75272;SDS011;63869;52.344;16.928;2022-11-10T03:07:19;27.38;;;13.05;;
75272;SDS011;63869;52.344;16.928;2022-11-10T03:09:44;27.02;;;12.93;;
75272;SDS011;63869;52.344;16.928;2022-11-10T03:12:09;29.20;;;13.05;;
75272;SDS011;63869;52.344;16.928;2022-11-10T03:14:35;26.75;;;13.30;;
75272;SDS011;63869;52.344;16.928;2022-11-10T03:17:00;30.65;;;13.40;;
75272;SDS011;63869;52.344;16.928;2022-11-10T03:19:25;27.42;;;13.05;;
75272;SDS011;63869;52.344;16.928;2022-11-10T03:21:51;29.52;;;12.98;;
75272;SDS011;63869;52.344;16.928;2022-11-10T03:24:16;26.67;;;13.23;;
75272;SDS011;63869;52.344;16.928;2022-11-10T03:26:41;26.90;;;13.57;;
75272;SDS011;63869;52.344;16.928;2022-11-10T03:29:06;27.65;;;12.63;;
75272;SDS011;63869;52.344;16.928;2022-11-10T03:31:32;26.52;;;12.57;;
75272;SDS011;63869;52.344;16.928;2022-11-10T03:33:57;28.95;;;13.82;;
75272;SDS011;63869;52.344;16.928;2022-11-10T03:36:22;27.77;;;12.30;;
75272;SDS011;63869;52.344;16.928;2022-11-10T03:38:47;29.00;;;13.05;;
75272;SDS011;63869;52.344;16.928;2022-11-10T03:41:13;27.33;;;13.05;;
75272;SDS011;63869;52.344;16.928;2022-11-10T03:43:38;27.58;;;12.55;;
75272;SDS011;63869;52.344;16.928;2022-11-10T03:46:03;25.63;;;12.40;;
75272;SDS011;63869;52.344;16.928;2022-11-10T03:48:29;25.48;;;12.73;;
75272;SDS011;63869;52.344;16.928;2022-11-10T03:50:54;25.73;;;12.52;;
75272;SDS011;63869;52.344;16.928;2022-11-10T03:53:19;27.92;;;12.63;;
75272;SDS011;63869;52.344;16.928;2022-11-10T03:55:45;29.13;;;12.02;;
75272;SDS011;63869;52.344;16.928;2022-11-10T03:58:10;27.13;;;12.43;;
75272;SDS011;63869;52.344;16.928;2022-11-10T04:00:35;29.33;;;13.23;;
75272;SDS011;63869;52.344;16.928;2022-11-10T04:03:01;27.13;;;13.63;;
75272;SDS011;63869;52.344;16.928;2022-11-10T04:05:26;25.90;;;12.38;;
75272;SDS011;63869;52.344;16.928;2022-11-10T04:10:59;24.35;;;11.30;;
75272;SDS011;63869;52.344;16.928;2022-11-10T04:13:24;32.20;;;12.48;;
75272;SDS011;63869;52.344;16.928;2022-11-10T04:16:08;21.65;;;11.45;;
75272;SDS011;63869;52.344;16.928;2022-11-10T04:18:33;24.33;;;11.95;;
75272;SDS011;63869;52.344;16.928;2022-11-10T04:21:00;23.92;;;11.80;;
75272;SDS011;63869;52.344;16.928;2022-11-10T04:23:30;25.05;;;11.68;;
75272;SDS011;63869;52.344;16.928;2022-11-10T04:26:01;24.90;;;12.02;;
75272;SDS011;63869;52.344;16.928;2022-11-10T04:28:45;23.15;;;11.90;;
75272;SDS011;63869;52.344;16.928;2022-11-10T04:31:13;25.05;;;12.40;;
75272;SDS011;63869;52.344;16.928;2022-11-10T04:33:40;24.60;;;11.38;;
75272;SDS011;63869;52.344;16.928;2022-11-10T04:36:07;28.08;;;12.63;;
75272;SDS011;63869;52.344;16.928;2022-11-10T04:38:33;24.40;;;11.90;;
75272;SDS011;63869;52.344;16.928;2022-11-10T04:40:59;23.65;;;11.82;;
75272;SDS011;63869;52.344;16.928;2022-11-10T04:43:24;25.25;;;11.52;;
75272;SDS011;63869;52.344;16.928;2022-11-10T04:45:50;23.60;;;11.02;;
75272;SDS011;63869;52.344;16.928;2022-11-10T04:48:15;22.98;;;11.68;;
75272;SDS011;63869;52.344;16.928;2022-11-10T04:50:40;24.08;;;11.73;;
75272;SDS011;63869;52.344;16.928;2022-11-10T04:53:05;21.52;;;11.07;;
75272;SDS011;63869;52.344;16.928;2022-11-10T04:55:31;22.10;;;10.93;;
75272;SDS011;63869;52.344;16.928;2022-11-10T04:57:56;24.05;;;11.20;;
75272;SDS011;63869;52.344;16.928;2022-11-10T05:00:22;22.95;;;11.45;;
75272;SDS011;63869;52.344;16.928;2022-11-10T05:02:47;21.63;;;10.65;;
75272;SDS011;63869;52.344;16.928;2022-11-10T05:05:12;22.63;;;11.55;;
75272;SDS011;63869;52.344;16.928;2022-11-10T05:07:38;24.88;;;11.55;;
75272;SDS011;63869;52.344;16.928;2022-11-10T05:10:03;21.25;;;10.68;;
75272;SDS011;63869;52.344;16.928;2022-11-10T05:12:29;24.35;;;11.48;;
75272;SDS011;63869;52.344;16.928;2022-11-10T05:14:54;21.58;;;10.93;;
75272;SDS011;63869;52.344;16.928;2022-11-10T05:17:20;26.33;;;12.55;;
75272;SDS011;63869;52.344;16.928;2022-11-10T05:19:46;27.55;;;12.20;;
75272;SDS011;63869;52.344;16.928;2022-11-10T05:22:11;24.70;;;11.75;;
75272;SDS011;63869;52.344;16.928;2022-11-10T05:24:36;26.77;;;11.90;;
75272;SDS011;63869;52.344;16.928;2022-11-10T05:27:02;19.15;;;10.05;;
75272;SDS011;63869;52.344;16.928;2022-11-10T05:29:27;18.73;;;9.60;;
75272;SDS011;63869;52.344;16.928;2022-11-10T05:31:52;17.40;;;9.38;;
75272;SDS011;63869;52.344;16.928;2022-11-10T05:34:18;20.83;;;9.77;;
75272;SDS011;63869;52.344;16.928;2022-11-10T05:36:43;20.10;;;9.15;;
75272;SDS011;63869;52.344;16.928;2022-11-10T05:39:08;18.58;;;9.30;;
75272;SDS011;63869;52.344;16.928;2022-11-10T05:41:33;19.85;;;8.80;;
75272;SDS011;63869;52.344;16.928;2022-11-10T05:43:59;18.65;;;8.82;;
75272;SDS011;63869;52.344;16.928;2022-11-10T05:46:24;14.35;;;7.78;;
75272;SDS011;63869;52.344;16.928;2022-11-10T05:48:49;14.18;;;8.25;;
75272;SDS011;63869;52.344;16.928;2022-11-10T05:51:15;16.63;;;8.32;;
75272;SDS011;63869;52.344;16.928;2022-11-10T05:53:40;14.23;;;7.78;;
75272;SDS011;63869;52.344;16.928;2022-11-10T05:56:05;19.00;;;9.00;;
75272;SDS011;63869;52.344;16.928;2022-11-10T05:58:31;19.05;;;8.80;;
75272;SDS011;63869;52.344;16.928;2022-11-10T06:00:56;17.67;;;8.27;;
75272;SDS011;63869;52.344;16.928;2022-11-10T06:03:22;18.65;;;9.00;;
75272;SDS011;63869;52.344;16.928;2022-11-10T06:05:47;16.50;;;8.05;;
75272;SDS011;63869;52.344;16.928;2022-11-10T06:08:13;20.48;;;9.55;;
75272;SDS011;63869;52.344;16.928;2022-11-10T06:10:39;16.67;;;8.23;;
75272;SDS011;63869;52.344;16.928;2022-11-10T06:13:04;15.77;;;8.02;;
75272;SDS011;63869;52.344;16.928;2022-11-10T06:15:30;20.23;;;8.85;;
75272;SDS011;63869;52.344;16.928;2022-11-10T06:17:56;17.30;;;9.20;;
75272;SDS011;63869;52.344;16.928;2022-11-10T06:20:22;17.30;;;9.75;;
75272;SDS011;63869;52.344;16.928;2022-11-10T06:25:31;18.23;;;9.38;;
75272;SDS011;63869;52.344;16.928;2022-11-10T06:27:58;21.70;;;9.60;;
75272;SDS011;63869;52.344;16.928;2022-11-10T06:30:24;18.92;;;9.82;;
75272;SDS011;63869;52.344;16.928;2022-11-10T06:32:50;20.88;;;9.30;;
75272;SDS011;63869;52.344;16.928;2022-11-10T06:35:16;20.63;;;9.45;;
75272;SDS011;63869;52.344;16.928;2022-11-10T06:37:41;17.45;;;9.00;;
75272;SDS011;63869;52.344;16.928;2022-11-10T06:40:07;18.15;;;9.10;;
75272;SDS011;63869;52.344;16.928;2022-11-10T06:42:34;18.88;;;9.40;;
75272;SDS011;63869;52.344;16.928;2022-11-10T06:44:59;19.20;;;9.77;;
75272;SDS011;63869;52.344;16.928;2022-11-10T06:47:25;21.13;;;9.50;;
75272;SDS011;63869;52.344;16.928;2022-11-10T06:49:51;17.42;;;9.10;;
75272;SDS011;63869;52.344;16.928;2022-11-10T06:52:16;16.48;;;8.55;;
75272;SDS011;63869;52.344;16.928;2022-11-10T06:54:41;17.42;;;9.02;;
75272;SDS011;63869;52.344;16.928;2022-11-10T06:57:07;18.75;;;9.60;;
75272;SDS011;63869;52.344;16.928;2022-11-10T06:59:32;21.92;;;9.52;;
75272;SDS011;63869;52.344;16.928;2022-11-10T07:01:57;22.15;;;9.55;;
75272;SDS011;63869;52.344;16.928;2022-11-10T07:04:23;28.38;;;10.38;;
75272;SDS011;63869;52.344;16.928;2022-11-10T07:06:48;21.13;;;9.38;;
75272;SDS011;63869;52.344;16.928;2022-11-10T07:09:14;25.65;;;10.25;;
75272;SDS011;63869;52.344;16.928;2022-11-10T07:11:39;25.67;;;9.52;;
75272;SDS011;63869;52.344;16.928;2022-11-10T07:14:04;15.98;;;8.63;;
75272;SDS011;63869;52.344;16.928;2022-11-10T07:16:30;34.85;;;11.73;;
75272;SDS011;63869;52.344;16.928;2022-11-10T07:18:55;16.67;;;9.38;;
75272;SDS011;63869;52.344;16.928;2022-11-10T07:21:20;19.85;;;9.20;;
75272;SDS011;63869;52.344;16.928;2022-11-10T07:23:45;24.25;;;9.07;;
75272;SDS011;63869;52.344;16.928;2022-11-10T07:26:11;25.00;;;9.95;;
75272;SDS011;63869;52.344;16.928;2022-11-10T07:28:36;12.38;;;7.47;;
75272;SDS011;63869;52.344;16.928;2022-11-10T07:31:02;17.85;;;8.60;;
75272;SDS011;63869;52.344;16.928;2022-11-10T07:33:27;19.15;;;8.30;;
75272;SDS011;63869;52.344;16.928;2022-11-10T07:35:56;16.58;;;7.35;;
75272;SDS011;63869;52.344;16.928;2022-11-10T07:38:22;31.55;;;9.65;;
75272;SDS011;63869;52.344;16.928;2022-11-10T07:40:51;14.05;;;7.57;;
75272;SDS011;63869;52.344;16.928;2022-11-10T07:43:21;16.13;;;7.28;;
75272;SDS011;63869;52.344;16.928;2022-11-10T07:45:48;14.07;;;6.47;;
75272;SDS011;63869;52.344;16.928;2022-11-10T07:48:14;12.93;;;6.90;;
75272;SDS011;63869;52.344;16.928;2022-11-10T07:50:40;14.50;;;6.80;;
75272;SDS011;63869;52.344;16.928;2022-11-10T07:53:10;16.52;;;7.32;;
75272;SDS011;63869;52.344;16.928;2022-11-10T07:55:41;14.85;;;6.35;;
75272;SDS011;63869;52.344;16.928;2022-11-10T07:58:07;12.45;;;6.20;;
75272;SDS011;63869;52.344;16.928;2022-11-10T08:00:34;10.73;;;6.60;;
75272;SDS011;63869;52.344;16.928;2022-11-10T08:03:03;12.65;;;6.47;;
75272;SDS011;63869;52.344;16.928;2022-11-10T08:05:30;10.48;;;5.63;;
75272;SDS011;63869;52.344;16.928;2022-11-10T08:07:56;11.70;;;5.90;;
75272;SDS011;63869;52.344;16.928;2022-11-10T08:10:21;11.55;;;6.03;;
75272;SDS011;63869;52.344;16.928;2022-11-10T08:12:52;9.43;;;5.28;;
75272;SDS011;63869;52.344;16.928;2022-11-10T08:15:18;8.95;;;5.22;;
75272;SDS011;63869;52.344;16.928;2022-11-10T08:17:44;9.82;;;5.43;;
75272;SDS011;63869;52.344;16.928;2022-11-10T08:20:09;8.93;;;5.25;;
75272;SDS011;63869;52.344;16.928;2022-11-10T08:22:35;8.80;;;5.50;;
75272;SDS011;63869;52.344;16.928;2022-11-10T08:25:00;10.25;;;5.82;;
75272;SDS011;63869;52.344;16.928;2022-11-10T08:27:25;10.27;;;5.40;;
75272;SDS011;63869;52.344;16.928;2022-11-10T08:29:50;9.70;;;5.05;;
75272;SDS011;63869;52.344;16.928;2022-11-10T08:32:16;9.93;;;5.30;;
75272;SDS011;63869;52.344;16.928;2022-11-10T08:34:41;11.57;;;4.93;;
75272;SDS011;63869;52.344;16.928;2022-11-10T08:37:06;10.88;;;5.03;;
75272;SDS011;63869;52.344;16.928;2022-11-10T08:39:31;13.82;;;5.57;;
75272;SDS011;63869;52.344;16.928;2022-11-10T08:41:57;11.07;;;4.70;;
75272;SDS011;63869;52.344;16.928;2022-11-10T08:44:22;12.10;;;5.10;;
75272;SDS011;63869;52.344;16.928;2022-11-10T08:46:47;9.18;;;4.85;;
75272;SDS011;63869;52.344;16.928;2022-11-10T08:49:12;8.93;;;5.03;;
75272;SDS011;63869;52.344;16.928;2022-11-10T08:51:38;8.15;;;4.55;;
75272;SDS011;63869;52.344;16.928;2022-11-10T08:54:03;11.43;;;5.00;;
75272;SDS011;63869;52.344;16.928;2022-11-10T08:56:28;8.48;;;4.97;;
75272;SDS011;63869;52.344;16.928;2022-11-10T08:58:54;9.32;;;4.57;;
75272;SDS011;63869;52.344;16.928;2022-11-10T09:01:19;8.77;;;4.30;;
75272;SDS011;63869;52.344;16.928;2022-11-10T09:03:45;10.63;;;4.80;;
75272;SDS011;63869;52.344;16.928;2022-11-10T09:06:10;8.55;;;4.43;;
75272;SDS011;63869;52.344;16.928;2022-11-10T09:08:35;9.18;;;4.63;;
75272;SDS011;63869;52.344;16.928;2022-11-10T09:11:02;10.38;;;4.85;;
75272;SDS011;63869;52.344;16.928;2022-11-10T09:13:30;8.07;;;4.05;;
75272;SDS011;63869;52.344;16.928;2022-11-10T09:16:00;6.45;;;4.18;;
75272;SDS011;63869;52.344;16.928;2022-11-10T09:18:26;7.78;;;4.15;;
75272;SDS011;63869;52.344;16.928;2022-11-10T09:20:51;9.85;;;3.90;;
75272;SDS011;63869;52.344;16.928;2022-11-10T09:23:17;9.70;;;4.13;;
75272;SDS011;63869;52.344;16.928;2022-11-10T09:25:47;7.00;;;3.72;;
75272;SDS011;63869;52.344;16.928;2022-11-10T09:28:14;6.88;;;3.60;;
75272;SDS011;63869;52.344;16.928;2022-11-10T09:30:41;11.18;;;3.53;;
75272;SDS011;63869;52.344;16.928;2022-11-10T09:33:07;10.10;;;3.53;;
75272;SDS011;63869;52.344;16.928;2022-11-10T09:35:32;8.00;;;3.45;;
75272;SDS011;63869;52.344;16.928;2022-11-10T09:37:58;6.55;;;3.53;;
75272;SDS011;63869;52.344;16.928;2022-11-10T09:40:27;8.35;;;3.35;;
75272;SDS011;63869;52.344;16.928;2022-11-10T09:43:26;10.88;;;3.55;;
75272;SDS011;63869;52.344;16.928;2022-11-10T09:45:58;6.10;;;3.53;;
75272;SDS011;63869;52.344;16.928;2022-11-10T09:48:33;11.18;;;4.05;;
75272;SDS011;63869;52.344;16.928;2022-11-10T09:51:03;8.27;;;4.28;;
75272;SDS011;63869;52.344;16.928;2022-11-10T09:53:37;9.43;;;3.97;;
75272;SDS011;63869;52.344;16.928;2022-11-10T09:56:07;7.53;;;3.78;;
75272;SDS011;63869;52.344;16.928;2022-11-10T09:58:39;6.15;;;3.40;;
75272;SDS011;63869;52.344;16.928;2022-11-10T10:01:43;7.78;;;3.03;;
75272;SDS011;63869;52.344;16.928;2022-11-10T10:04:27;8.15;;;3.58;;
75272;SDS011;63869;52.344;16.928;2022-11-10T10:07:13;7.97;;;3.55;;
75272;SDS011;63869;52.344;16.928;2022-11-10T10:12:21;7.70;;;3.67;;
75272;SDS011;63869;52.344;16.928;2022-11-10T10:17:54;6.45;;;3.55;;
75272;SDS011;63869;52.344;16.928;2022-11-10T10:20:38;7.53;;;3.28;;
75272;SDS011;63869;52.344;16.928;2022-11-10T10:23:25;8.38;;;3.38;;
75272;SDS011;63869;52.344;16.928;2022-11-10T10:25:56;9.15;;;3.58;;
75272;SDS011;63869;52.344;16.928;2022-11-10T10:28:35;7.43;;;3.28;;
75272;SDS011;63869;52.344;16.928;2022-11-10T10:33:42;6.38;;;3.35;;
75272;SDS011;63869;52.344;16.928;2022-11-10T10:36:16;5.07;;;3.20;;
75272;SDS011;63869;52.344;16.928;2022-11-10T10:38:44;8.52;;;3.20;;
75272;SDS011;63869;52.344;16.928;2022-11-10T10:41:14;7.35;;;3.22;;
75272;SDS011;63869;52.344;16.928;2022-11-10T10:43:46;8.20;;;3.05;;
75272;SDS011;63869;52.344;16.928;2022-11-10T10:46:14;7.50;;;2.90;;
75272;SDS011;63869;52.344;16.928;2022-11-10T10:48:40;8.75;;;3.20;;
75272;SDS011;63869;52.344;16.928;2022-11-10T10:51:06;6.75;;;3.28;;
75272;SDS011;63869;52.344;16.928;2022-11-10T10:53:32;7.32;;;3.08;;
75272;SDS011;63869;52.344;16.928;2022-11-10T10:56:16;9.75;;;3.22;;
75272;SDS011;63869;52.344;16.928;2022-11-10T10:58:51;7.00;;;3.22;;
75272;SDS011;63869;52.344;16.928;2022-11-10T11:01:23;7.45;;;3.40;;
75272;SDS011;63869;52.344;16.928;2022-11-10T11:03:54;8.07;;;3.55;;
75272;SDS011;63869;52.344;16.928;2022-11-10T11:08:57;10.23;;;3.25;;
75272;SDS011;63869;52.344;16.928;2022-11-10T11:11:57;7.53;;;3.00;;
75272;SDS011;63869;52.344;16.928;2022-11-10T11:14:26;5.97;;;3.10;;
75272;SDS011;63869;52.344;16.928;2022-11-10T11:19:23;7.65;;;3.10;;
75272;SDS011;63869;52.344;16.928;2022-11-10T11:27:03;5.88;;;2.70;;
75272;SDS011;63869;52.344;16.928;2022-11-10T11:38:14;6.50;;;2.42;;
75272;SDS011;63869;52.344;16.928;2022-11-10T11:46:36;5.68;;;2.65;;
75272;SDS011;63869;52.344;16.928;2022-11-10T11:49:26;12.50;;;3.10;;
75272;SDS011;63869;52.344;16.928;2022-11-10T11:52:12;6.95;;;2.70;;
75272;SDS011;63869;52.344;16.928;2022-11-10T11:54:52;6.90;;;2.55;;
75272;SDS011;63869;52.344;16.928;2022-11-10T12:00:34;5.63;;;2.47;;
75272;SDS011;63869;52.344;16.928;2022-11-10T12:03:28;7.25;;;2.58;;
75272;SDS011;63869;52.344;16.928;2022-11-10T12:06:22;7.07;;;2.60;;
75272;SDS011;63869;52.344;16.928;2022-11-10T12:11:42;4.70;;;2.50;;
75272;SDS011;63869;52.344;16.928;2022-11-10T12:19:58;7.25;;;2.65;;
75272;SDS011;63869;52.344;16.928;2022-11-10T12:30:41;8.32;;;3.00;;
75272;SDS011;63869;52.344;16.928;2022-11-10T12:33:15;7.78;;;2.83;;
75272;SDS011;63869;52.344;16.928;2022-11-10T12:35:51;5.78;;;2.90;;
75272;SDS011;63869;52.344;16.928;2022-11-10T12:38:20;7.07;;;2.92;;
75272;SDS011;63869;52.344;16.928;2022-11-10T12:43:42;7.22;;;3.22;;
75272;SDS011;63869;52.344;16.928;2022-11-10T12:46:10;6.53;;;2.72;;
75272;SDS011;63869;52.344;16.928;2022-11-10T12:48:40;8.95;;;3.15;;
75272;SDS011;63869;52.344;16.928;2022-11-10T12:51:25;6.18;;;2.90;;
75272;SDS011;63869;52.344;16.928;2022-11-10T12:53:56;7.28;;;2.90;;
75272;SDS011;63869;52.344;16.928;2022-11-10T12:56:23;11.32;;;3.05;;
75272;SDS011;63869;52.344;16.928;2022-11-10T12:59:11;9.07;;;3.20;;
75272;SDS011;63869;52.344;16.928;2022-11-10T13:04:12;6.40;;;3.00;;
75272;SDS011;63869;52.344;16.928;2022-11-10T13:06:44;5.93;;;3.00;;
75272;SDS011;63869;52.344;16.928;2022-11-10T13:09:29;11.20;;;4.43;;
75272;SDS011;63869;52.344;16.928;2022-11-10T13:14:42;6.18;;;2.50;;
75272;SDS011;63869;52.344;16.928;2022-11-10T13:17:10;4.30;;;2.40;;
75272;SDS011;63869;52.344;16.928;2022-11-10T13:19:56;5.68;;;2.33;;
75272;SDS011;63869;52.344;16.928;2022-11-10T13:22:28;9.23;;;3.05;;
75272;SDS011;63869;52.344;16.928;2022-11-10T13:27:58;5.60;;;2.80;;
75272;SDS011;63869;52.344;16.928;2022-11-10T13:30:40;3.45;;;2.20;;
75272;SDS011;63869;52.344;16.928;2022-11-10T13:35:51;5.93;;;2.90;;
75272;SDS011;63869;52.344;16.928;2022-11-10T13:38:40;5.68;;;2.47;;
75272;SDS011;63869;52.344;16.928;2022-11-10T13:43:53;5.05;;;2.58;;
75272;SDS011;63869;52.344;16.928;2022-11-10T13:46:32;6.40;;;2.65;;
75272;SDS011;63869;52.344;16.928;2022-11-10T13:57:50;10.00;;;3.65;;
75272;SDS011;63869;52.344;16.928;2022-11-10T14:02:45;7.20;;;3.70;;
75272;SDS011;63869;52.344;16.928;2022-11-10T14:08:05;9.40;;;3.78;;
75272;SDS011;63869;52.344;16.928;2022-11-10T14:10:41;12.00;;;5.43;;
75272;SDS011;63869;52.344;16.928;2022-11-10T14:16:23;12.40;;;4.85;;
75272;SDS011;63869;52.344;16.928;2022-11-10T14:21:21;11.90;;;4.28;;
75272;SDS011;63869;52.344;16.928;2022-11-10T14:23:55;16.67;;;5.47;;
75272;SDS011;63869;52.344;16.928;2022-11-10T14:26:58;20.70;;;7.88;;
75272;SDS011;63869;52.344;16.928;2022-11-10T14:29:27;19.52;;;7.40;;
75272;SDS011;63869;52.344;16.928;2022-11-10T14:31:57;16.27;;;6.40;;
75272;SDS011;63869;52.344;16.928;2022-11-10T14:34:26;28.17;;;9.30;;
75272;SDS011;63869;52.344;16.928;2022-11-10T14:36:55;23.33;;;9.13;;
75272;SDS011;63869;52.344;16.928;2022-11-10T14:39:31;21.65;;;8.02;;
75272;SDS011;63869;52.344;16.928;2022-11-10T14:41:58;22.40;;;8.25;;
75272;SDS011;63869;52.344;16.928;2022-11-10T14:44:27;15.32;;;6.40;;
75272;SDS011;63869;52.344;16.928;2022-11-10T14:46:53;11.00;;;5.68;;
75272;SDS011;63869;52.344;16.928;2022-11-10T14:49:20;12.35;;;4.82;;
75272;SDS011;63869;52.344;16.928;2022-11-10T14:51:46;16.67;;;5.82;;
75272;SDS011;63869;52.344;16.928;2022-11-10T14:54:12;28.02;;;10.27;;
75272;SDS011;63869;52.344;16.928;2022-11-10T14:56:47;30.38;;;12.23;;
75272;SDS011;63869;52.344;16.928;2022-11-10T14:59:13;28.60;;;11.25;;
75272;SDS011;63869;52.344;16.928;2022-11-10T15:01:40;21.70;;;9.07;;
75272;SDS011;63869;52.344;16.928;2022-11-10T15:04:12;32.08;;;13.32;;
75272;SDS011;63869;52.344;16.928;2022-11-10T15:06:38;23.83;;;9.88;;
75272;SDS011;63869;52.344;16.928;2022-11-10T15:09:27;23.98;;;11.93;;
75272;SDS011;63869;52.344;16.928;2022-11-10T15:17:00;26.27;;;17.83;;
75272;SDS011;63869;52.344;16.928;2022-11-10T15:19:27;24.00;;;13.05;;
75272;SDS011;63869;52.344;16.928;2022-11-10T15:21:54;28.08;;;10.85;;
75272;SDS011;63869;52.344;16.928;2022-11-10T15:24:20;25.02;;;11.90;;
75272;SDS011;63869;52.344;16.928;2022-11-10T15:26:48;27.70;;;12.98;;
75272;SDS011;63869;52.344;16.928;2022-11-10T15:29:18;23.65;;;11.80;;
75272;SDS011;63869;52.344;16.928;2022-11-10T15:31:45;21.05;;;10.82;;
75272;SDS011;63869;52.344;16.928;2022-11-10T15:34:26;32.72;;;14.13;;
75272;SDS011;63869;52.344;16.928;2022-11-10T15:37:19;39.80;;;15.90;;
75272;SDS011;63869;52.344;16.928;2022-11-10T15:39:47;65.78;;;27.48;;
75272;SDS011;63869;52.344;16.928;2022-11-10T15:42:22;108.70;;;44.13;;
75272;SDS011;63869;52.344;16.928;2022-11-10T15:44:48;27.85;;;12.15;;
75272;SDS011;63869;52.344;16.928;2022-11-10T15:47:14;27.25;;;12.98;;
75272;SDS011;63869;52.344;16.928;2022-11-10T15:49:41;28.50;;;14.10;;
75272;SDS011;63869;52.344;16.928;2022-11-10T15:52:12;32.17;;;14.98;;
75272;SDS011;63869;52.344;16.928;2022-11-10T15:54:40;35.17;;;19.63;;
75272;SDS011;63869;52.344;16.928;2022-11-10T15:57:12;63.65;;;28.90;;
75272;SDS011;63869;52.344;16.928;2022-11-10T16:02:23;60.25;;;24.52;;
75272;SDS011;63869;52.344;16.928;2022-11-10T16:04:50;94.03;;;35.55;;
75272;SDS011;63869;52.344;16.928;2022-11-10T16:07:18;181.32;;;56.22;;
75272;SDS011;63869;52.344;16.928;2022-11-10T16:09:43;125.85;;;42.63;;
75272;SDS011;63869;52.344;16.928;2022-11-10T16:12:17;78.43;;;31.08;;
75272;SDS011;63869;52.344;16.928;2022-11-10T16:14:47;42.05;;;17.60;;